createdAt,value
2019-04-27T00:00:07.854Z,8.32
2019-04-27T00:03:20.138Z,8.85
2019-04-27T00:06:30.886Z,8.38
2019-04-27T00:09:50.045Z,8.83
2019-04-27T00:12:50.673Z,9.04
2019-04-27T00:16:11.164Z,9.12
2019-04-27T00:19:27.337Z,8.95
2019-04-27T00:22:37.412Z,8.27
2019-04-27T00:25:44.240Z,8.56
2019-04-27T00:28:50.791Z,8.46
2019-04-27T00:31:57.463Z,8.82
2019-04-27T00:35:08.452Z,8.65
2019-04-27T00:38:34.010Z,8.40
2019-04-27T00:41:40.578Z,8.66
2019-04-27T00:44:47.216Z,9.03
2019-04-27T00:47:59.283Z,8.32
2019-04-27T00:51:02.035Z,8.28
2019-04-27T00:54:08.604Z,8.54
2019-04-27T00:57:35.055Z,8.23
2019-04-27T01:01:14.934Z,8.37
2019-04-27T01:04:24.532Z,8.22
2019-04-27T01:07:33.421Z,8.71
2019-04-27T01:10:39.980Z,8.53
2019-04-27T01:13:46.660Z,8.19
2019-04-27T01:16:53.389Z,8.42
2019-04-27T01:20:00.005Z,8.44
2019-04-27T01:23:06.515Z,8.54
2019-04-27T01:26:30.964Z,8.28
2019-04-27T01:29:39.261Z,8.69
2019-04-27T01:32:45.744Z,8.22
2019-04-27T01:35:52.231Z,8.46
2019-04-27T01:38:59.543Z,8.23
2019-04-27T01:42:06.300Z,8.34
2019-04-27T01:45:13.199Z,8.42
2019-04-27T01:48:23.881Z,8.34
2019-04-27T01:51:29.457Z,8.58
2019-04-27T01:54:36.929Z,8.56
2019-04-27T01:57:43.386Z,8.74
2019-04-27T02:01:12.833Z,8.64
2019-04-27T02:04:26.900Z,8.44
2019-04-27T02:07:33.593Z,8.71
2019-04-27T02:10:40.087Z,8.33
2019-04-27T02:13:46.832Z,8.55
2019-04-27T02:16:53.478Z,8.54
2019-04-27T02:20:01.120Z,8.68
2019-04-27T02:23:09.143Z,8.48
2019-04-27T02:26:15.833Z,8.28
2019-04-27T02:29:51.120Z,8.47
2019-04-27T02:33:22.471Z,8.35
2019-04-27T02:36:31.257Z,8.44
2019-04-27T02:39:39.890Z,8.63
2019-04-27T02:42:49.950Z,8.60
2019-04-27T02:45:56.219Z,8.56
2019-04-27T02:49:06.334Z,8.38
2019-04-27T02:52:20.535Z,8.45
2019-04-27T02:55:29.246Z,8.64
2019-04-27T02:58:35.788Z,8.67
2019-04-27T03:01:54.459Z,8.76
2019-04-27T03:05:01.899Z,8.57
2019-04-27T03:08:10.249Z,8.64
2019-04-27T03:11:16.873Z,8.40
2019-04-27T03:14:43.741Z,8.48
2019-04-27T03:18:09.915Z,8.79
2019-04-27T03:21:22.067Z,8.54
2019-04-27T03:24:46.519Z,8.35
2019-04-27T03:27:55.179Z,8.74
2019-04-27T03:31:02.971Z,8.90
2019-04-27T03:34:15.724Z,8.63
2019-04-27T03:37:20.321Z,8.66
2019-04-27T03:40:27.023Z,9.07
2019-04-27T03:43:33.573Z,8.58
2019-04-27T03:46:42.338Z,8.71
2019-04-27T03:49:50.751Z,8.82
2019-04-27T03:53:16.949Z,8.67
2019-04-27T03:56:33.047Z,8.74
2019-04-27T04:00:06.210Z,8.97
2019-04-27T04:03:14.312Z,8.77
2019-04-27T04:06:20.832Z,9.26
2019-04-27T04:09:40.371Z,9.11
2019-04-27T04:12:56.203Z,8.84
2019-04-27T04:16:15.972Z,8.75
2019-04-27T04:19:22.616Z,8.69
2019-04-27T04:22:30.274Z,8.65
2019-04-27T04:25:37.283Z,8.66
2019-04-27T04:28:46.158Z,8.85
2019-04-27T04:31:52.737Z,8.66
2019-04-27T04:35:21.213Z,8.70
2019-04-27T04:38:30.437Z,8.66
2019-04-27T04:41:51.494Z,8.74
2019-04-27T04:45:22.625Z,9.11
2019-04-27T04:48:30.438Z,8.69
2019-04-27T04:51:37.210Z,8.44
2019-04-27T04:54:44.142Z,8.82
2019-04-27T04:57:50.731Z,8.84
2019-04-27T05:00:59.650Z,8.95
2019-04-27T05:04:05.630Z,9.17
2019-04-27T05:07:12.236Z,9.20
2019-04-27T05:10:19.015Z,9.23
2019-04-27T05:13:27.217Z,9.25
2019-04-27T05:16:33.706Z,9.00
2019-04-27T05:19:40.167Z,9.20
2019-04-27T05:22:49.133Z,9.18
2019-04-27T05:25:55.876Z,8.84
2019-04-27T05:29:03.357Z,9.22
2019-04-27T05:32:11.472Z,8.96
2019-04-27T05:35:19.419Z,9.04
2019-04-27T05:38:27.036Z,8.96
2019-04-27T05:41:37.746Z,9.21
2019-04-27T05:45:31.136Z,9.45
2019-04-27T05:48:39.099Z,9.75
2019-04-27T05:51:48.026Z,9.53
2019-04-27T05:54:53.912Z,9.38
2019-04-27T05:58:00.421Z,9.43
2019-04-27T06:01:06.972Z,9.50
2019-04-27T06:04:13.436Z,9.37
2019-04-27T06:07:19.942Z,9.57
2019-04-27T06:10:26.582Z,9.41
2019-04-27T06:13:33.008Z,9.68
2019-04-27T06:16:39.585Z,9.99
2019-04-27T06:19:46.064Z,9.70
2019-04-27T06:22:52.734Z,10.07
2019-04-27T06:26:01.821Z,10.05
2019-04-27T06:29:09.453Z,10.29
2019-04-27T06:32:16.139Z,10.51
2019-04-27T06:35:22.703Z,10.58
2019-04-27T06:38:30.460Z,10.42
2019-04-27T06:41:37.058Z,10.42
2019-04-27T06:44:43.542Z,10.38
2019-04-27T06:47:51.281Z,10.25
2019-04-27T06:51:05.030Z,10.24
2019-04-27T06:54:06.118Z,10.60
2019-04-27T06:57:12.663Z,10.50
2019-04-27T07:00:20.180Z,10.38
2019-04-27T07:03:28.953Z,10.67
2019-04-27T07:06:35.699Z,10.60
2019-04-27T07:09:42.312Z,10.62
2019-04-27T07:12:49.264Z,10.59
2019-04-27T07:15:55.777Z,10.87
2019-04-27T07:19:02.294Z,10.70
2019-04-27T07:22:09.100Z,11.17
2019-04-27T07:25:18.903Z,11.01
2019-04-27T07:28:25.368Z,11.01
2019-04-27T07:31:32.051Z,11.16
2019-04-27T07:34:38.887Z,11.16
2019-04-27T07:37:45.919Z,11.21
2019-04-27T07:41:06.770Z,11.11
2019-04-27T07:44:22.329Z,11.26
2019-04-27T07:47:31.116Z,11.45
2019-04-27T07:50:39.022Z,11.45
2019-04-27T07:53:45.631Z,11.03
2019-04-27T07:56:53.156Z,11.01
2019-04-27T08:00:01.080Z,11.10
2019-04-27T08:03:10.060Z,11.47
2019-04-27T08:06:18.830Z,11.59
2019-04-27T08:09:25.025Z,11.70
2019-04-27T08:12:32.914Z,11.80
2019-04-27T08:15:39.751Z,11.76
2019-04-27T08:18:46.345Z,11.95
2019-04-27T08:21:52.811Z,11.94
2019-04-27T08:24:59.640Z,11.94
2019-04-27T08:28:20.558Z,11.69
2019-04-27T08:31:32.596Z,12.04
2019-04-27T08:34:39.824Z,12.08
2019-04-27T08:37:46.254Z,12.16
2019-04-27T08:40:53.765Z,12.02
2019-04-27T08:44:00.245Z,12.29
2019-04-27T08:47:06.831Z,12.39
2019-04-27T08:50:13.882Z,12.53
2019-04-27T08:53:20.554Z,12.05
2019-04-27T08:56:27.063Z,12.33
2019-04-27T08:59:33.723Z,12.47
2019-04-27T09:02:46.762Z,12.60
2019-04-27T09:05:49.048Z,12.68
2019-04-27T09:09:04.383Z,12.87
2019-04-27T09:12:29.454Z,12.86
2019-04-27T09:15:43.716Z,12.74
2019-04-27T09:18:51.795Z,12.99
2019-04-27T09:22:13.382Z,13.31
2019-04-27T09:25:13.841Z,13.57
2019-04-27T09:28:21.895Z,13.66
2019-04-27T09:31:28.857Z,13.62
2019-04-27T09:34:36.666Z,13.78
2019-04-27T09:37:43.386Z,14.03
2019-04-27T09:40:49.893Z,13.95
2019-04-27T09:43:56.409Z,13.74
2019-04-27T09:47:02.904Z,13.78
2019-04-27T09:50:09.926Z,13.92
2019-04-27T09:53:16.701Z,13.80
2019-04-27T09:56:23.394Z,14.15
2019-04-27T09:59:33.218Z,14.09
2019-04-27T10:02:39.892Z,14.24
2019-04-27T10:05:46.427Z,14.52
2019-04-27T10:08:53.156Z,14.30
2019-04-27T10:11:59.738Z,14.20
2019-04-27T10:15:07.250Z,14.34
2019-04-27T10:18:13.775Z,14.78
2019-04-27T10:21:20.368Z,14.87
2019-04-27T10:24:27.291Z,14.94
2019-04-27T10:27:35.834Z,14.93
2019-04-27T10:30:42.261Z,14.96
2019-04-27T10:33:48.767Z,14.84
2019-04-27T10:36:55.941Z,14.73
2019-04-27T10:40:02.497Z,14.99
2019-04-27T10:43:11.688Z,15.37
2019-04-27T10:46:18.266Z,15.48
2019-04-27T10:49:24.792Z,15.42
2019-04-27T10:52:31.413Z,15.34
2019-04-27T10:55:38.237Z,15.03
2019-04-27T10:58:45.697Z,15.21
2019-04-27T11:01:53.509Z,15.17
2019-04-27T11:05:13.742Z,15.27
2019-04-27T11:08:20.355Z,15.73
2019-04-27T11:11:27.791Z,15.36
2019-04-27T11:14:34.555Z,15.82
2019-04-27T11:17:41.080Z,15.74
2019-04-27T11:20:47.653Z,15.23
2019-04-27T11:23:55.862Z,15.18
2019-04-27T11:27:02.594Z,15.52
2019-04-27T11:30:10.813Z,15.97
2019-04-27T11:33:17.628Z,15.54
2019-04-27T11:36:48.259Z,15.50
2019-04-27T11:39:55.955Z,15.40
2019-04-27T11:43:03.774Z,15.30
2019-04-27T11:46:10.330Z,15.61
2019-04-27T11:49:17.023Z,15.53
2019-04-27T11:52:23.530Z,15.47
2019-04-27T11:55:33.110Z,15.22
2019-04-27T11:58:39.727Z,15.22
2019-04-27T12:01:47.912Z,15.47
2019-04-27T12:04:54.305Z,15.40
2019-04-27T12:08:01.063Z,15.42
2019-04-27T12:11:07.907Z,15.78
2019-04-27T12:14:14.396Z,15.83
2019-04-27T12:17:21.141Z,16.56
2019-04-27T12:20:31.283Z,16.90
2019-04-27T12:23:41.217Z,17.04
2019-04-27T12:26:53.063Z,17.21
2019-04-27T12:30:13.070Z,16.69
2019-04-27T12:33:20.029Z,16.18
2019-04-27T12:36:27.982Z,16.03
2019-04-27T12:39:34.461Z,15.85
2019-04-27T12:42:40.947Z,15.67
2019-04-27T12:45:47.668Z,15.87
2019-04-27T12:48:55.333Z,16.45
2019-04-27T12:52:02.639Z,16.23
2019-04-27T12:55:31.493Z,16.70
2019-04-27T12:58:47.531Z,17.48
2019-04-27T13:01:56.013Z,17.06
2019-04-27T13:05:02.537Z,17.38
2019-04-27T13:08:09.317Z,16.72
2019-04-27T13:11:16.282Z,16.74
2019-04-27T13:14:24.000Z,16.41
2019-04-27T13:17:30.752Z,16.52
2019-04-27T13:20:37.653Z,16.63
2019-04-27T13:23:45.817Z,16.81
2019-04-27T13:26:52.533Z,16.82
2019-04-27T13:30:00.829Z,16.87
2019-04-27T13:33:07.449Z,17.49
2019-04-27T13:36:16.940Z,17.48
2019-04-27T13:39:23.363Z,17.10
2019-04-27T13:42:32.377Z,16.74
2019-04-27T13:45:50.546Z,16.90
2019-04-27T13:49:21.768Z,17.01
2019-04-27T13:52:31.659Z,16.49
2019-04-27T13:55:38.385Z,16.71
2019-04-27T13:58:48.199Z,16.72
2019-04-27T14:01:54.694Z,17.19
2019-04-27T14:05:01.285Z,17.52
2019-04-27T14:08:09.163Z,17.33
2019-04-27T14:11:15.711Z,17.42
2019-04-27T14:14:22.439Z,17.22
2019-04-27T14:17:30.507Z,16.86
2019-04-27T14:20:38.820Z,16.27
2019-04-27T14:23:45.468Z,16.53
2019-04-27T14:26:51.974Z,16.54
2019-04-27T14:29:59.565Z,16.97
2019-04-27T14:33:08.364Z,16.86
2019-04-27T14:36:18.245Z,17.13
2019-04-27T14:39:25.277Z,17.44
2019-04-27T14:42:32.081Z,18.13
2019-04-27T14:45:39.743Z,17.92
2019-04-27T14:48:46.536Z,17.91
2019-04-27T14:51:53.217Z,17.60
2019-04-27T14:54:59.849Z,17.07
2019-04-27T14:58:06.503Z,16.81
2019-04-27T15:01:13.066Z,17.39
2019-04-27T15:04:19.779Z,17.14
2019-04-27T15:07:26.745Z,16.93
2019-04-27T15:10:36.033Z,16.67
2019-04-27T15:13:43.012Z,17.09
2019-04-27T15:16:49.849Z,16.98
2019-04-27T15:20:01.689Z,17.43
2019-04-27T15:23:10.069Z,17.64
2019-04-27T15:26:21.839Z,17.25
2019-04-27T15:29:27.727Z,17.23
2019-04-27T15:32:47.997Z,16.85
2019-04-27T15:36:01.866Z,16.95
2019-04-27T15:39:14.423Z,16.55
2019-04-27T15:42:28.317Z,15.90
2019-04-27T15:45:35.025Z,15.74
2019-04-27T15:48:41.476Z,15.66
2019-04-27T15:51:50.651Z,15.47
2019-04-27T15:54:58.114Z,15.34
2019-04-27T15:58:04.664Z,15.10
2019-04-27T16:01:12.099Z,15.03
2019-04-27T16:04:18.672Z,15.02
2019-04-27T16:07:30.388Z,14.96
2019-04-27T16:10:37.339Z,14.96
2019-04-27T16:13:45.169Z,14.60
2019-04-27T16:16:51.750Z,13.78
2019-04-27T16:19:58.303Z,12.95
2019-04-27T16:23:05.077Z,12.34
2019-04-27T16:26:14.993Z,12.71
2019-04-27T16:29:23.142Z,12.73
2019-04-27T16:32:28.741Z,12.52
2019-04-27T16:35:35.272Z,12.60
2019-04-27T16:38:56.780Z,12.36
2019-04-27T16:42:03.516Z,11.57
2019-04-27T16:45:10.292Z,11.78
2019-04-27T16:48:18.561Z,11.20
2019-04-27T16:51:25.441Z,11.11
2019-04-27T16:54:32.112Z,11.72
2019-04-27T16:57:40.070Z,11.26
2019-04-27T17:00:48.143Z,11.74
2019-04-27T17:03:55.189Z,11.37
2019-04-27T17:07:01.688Z,11.51
2019-04-27T17:10:09.397Z,11.57
2019-04-27T17:13:16.529Z,11.72
2019-04-27T17:16:58.180Z,12.19
2019-04-27T17:20:05.394Z,11.74
2019-04-27T17:23:11.884Z,11.23
2019-04-27T17:26:21.881Z,11.98
2019-04-27T17:29:28.004Z,11.60
2019-04-27T17:32:48.645Z,10.66
2019-04-27T17:35:54.187Z,11.43
2019-04-27T17:39:00.797Z,11.35
2019-04-27T17:42:09.727Z,11.38
2019-04-27T17:45:16.450Z,11.60
2019-04-27T17:48:22.948Z,11.06
2019-04-27T17:51:35.332Z,11.06
2019-04-27T17:54:47.504Z,11.33
2019-04-27T17:57:49.406Z,11.43
2019-04-27T18:00:55.973Z,11.42
2019-04-27T18:04:03.102Z,10.93
2019-04-27T18:07:10.861Z,10.82
2019-04-27T18:10:22.406Z,11.02
2019-04-27T18:13:26.530Z,11.31
2019-04-27T18:16:34.498Z,11.41
2019-04-27T18:19:46.563Z,11.01
2019-04-27T18:23:10.612Z,10.64
2019-04-27T18:26:19.307Z,11.22
2019-04-27T18:29:30.853Z,11.16
2019-04-27T18:32:37.924Z,10.90
2019-04-27T18:35:44.849Z,11.22
2019-04-27T18:38:51.495Z,11.22
2019-04-27T18:42:00.866Z,10.61
2019-04-27T18:45:08.503Z,11.07
2019-04-27T18:48:21.131Z,11.06
2019-04-27T18:52:04.195Z,11.15
2019-04-27T18:55:11.356Z,10.67
2019-04-27T18:58:21.578Z,10.98
2019-04-27T19:01:28.992Z,10.59
2019-04-27T19:04:35.578Z,10.98
2019-04-27T19:07:42.596Z,10.98
2019-04-27T19:10:49.488Z,10.77
2019-04-27T19:13:55.985Z,10.36
2019-04-27T19:17:02.559Z,10.44
2019-04-27T19:20:10.428Z,10.51
2019-04-27T19:23:17.307Z,10.63
2019-04-27T19:26:45.727Z,10.76
2019-04-27T19:29:55.510Z,10.57
2019-04-27T19:33:02.214Z,10.87
2019-04-27T19:36:08.978Z,10.94
2019-04-27T19:39:15.824Z,10.72
2019-04-27T19:42:22.680Z,11.02
2019-04-27T19:45:29.782Z,10.99
2019-04-27T19:48:36.298Z,10.97
2019-04-27T19:51:42.764Z,11.07
2019-04-27T19:54:49.486Z,10.91
2019-04-27T19:58:01.524Z,10.38
2019-04-27T20:01:14.653Z,9.47
2019-04-27T20:04:27.861Z,8.86
2019-04-27T20:07:34.813Z,8.83
2019-04-27T20:10:43.887Z,8.88
2019-04-27T20:13:50.639Z,9.21
2019-04-27T20:16:58.783Z,9.30
2019-04-27T20:20:07.492Z,8.85
2019-04-27T20:23:16.759Z,9.33
2019-04-27T20:26:23.272Z,9.38
2019-04-27T20:29:31.755Z,8.36
2019-04-27T20:36:01.037Z,8.80
2019-04-27T20:39:11.675Z,8.18
2019-04-27T20:42:18.071Z,8.25
2019-04-27T20:45:24.826Z,8.01
2019-04-27T20:48:31.453Z,8.41
2019-04-27T20:51:55.928Z,8.67
2019-04-27T20:55:02.497Z,8.38
2019-04-27T20:58:09.081Z,8.75
2019-04-27T21:01:16.035Z,8.49
2019-04-27T21:04:26.103Z,8.89
2019-04-27T21:07:47.612Z,8.65
2019-04-27T21:10:55.253Z,8.91
2019-04-27T21:14:01.776Z,8.64
2019-04-27T21:17:08.407Z,9.09
2019-04-27T21:20:15.269Z,8.93
2019-04-27T21:23:24.553Z,8.33
2019-04-27T21:26:32.240Z,8.34
2019-04-27T21:29:38.830Z,8.35
2019-04-27T21:32:45.334Z,8.33
2019-04-27T21:35:51.803Z,7.71
2019-04-27T21:38:58.540Z,8.22
2019-04-27T21:42:06.041Z,8.37
2019-04-27T21:45:12.922Z,8.43
2019-04-27T21:48:21.238Z,8.77
2019-04-27T21:51:28.084Z,9.11
2019-04-27T21:54:35.908Z,9.12
2019-04-27T21:57:42.462Z,8.69
2019-04-27T22:01:13.590Z,9.09
2019-04-27T22:04:22.846Z,8.66
2019-04-27T22:07:29.301Z,8.31
2019-04-27T22:10:37.960Z,8.61
2019-04-27T22:13:44.335Z,7.95
2019-04-27T22:17:04.747Z,8.69
2019-04-27T22:20:11.843Z,8.58
2019-04-27T22:23:34.167Z,8.40
2019-04-27T22:26:41.477Z,8.39
2019-04-27T22:29:48.233Z,8.59
2019-04-27T22:32:54.749Z,8.23
2019-04-27T22:36:01.895Z,8.61
2019-04-27T22:39:36.702Z,8.28
2019-04-27T22:42:57.411Z,8.30
2019-04-27T22:46:04.649Z,7.69
2019-04-27T22:49:11.303Z,8.01
2019-04-27T22:52:17.826Z,8.05
2019-04-27T22:55:24.478Z,8.13
2019-04-27T22:58:31.449Z,8.17
2019-04-27T23:01:51.157Z,7.95
2019-04-27T23:05:01.746Z,8.28
2019-04-27T23:08:09.725Z,8.32
2019-04-27T23:11:16.292Z,7.76
2019-04-27T23:14:22.911Z,7.93
2019-04-27T23:17:42.290Z,7.76
2019-04-27T23:20:48.721Z,7.76
2019-04-27T23:23:55.291Z,7.93
2019-04-27T23:27:03.579Z,8.02
2019-04-27T23:30:11.324Z,7.86
2019-04-27T23:33:18.072Z,7.78
2019-04-27T23:36:24.660Z,8.44
2019-04-27T23:39:31.194Z,7.82
2019-04-27T23:42:37.731Z,7.73
2019-04-27T23:45:44.288Z,7.79
2019-04-27T23:48:52.039Z,7.65
2019-04-27T23:52:06.207Z,7.45
2019-04-27T23:55:12.733Z,7.40
2019-04-27T23:58:19.253Z,7.84
